Time;durP1;ratioP1;P1;durP2;ratioP2;P2;SDS_P1;SDS_P2;PMS_P1;PMS_P2;Temp;Humidity;BMP_temperature;BMP_pressure;BME280_temperature;BME280_humidity;BME280_pressure;Samples;Min_cycle;Max_cycle;Signal;HPM_P1;HPM_P2
2022/11/29 00:02:27;;;;;;;60.03;29.97;;;2.70;1.00;;;;;;10505583;28;20222;-80
2022/11/29 00:07:48;;;;;;;68.23;29.57;;;2.80;1.00;;;;;;10519868;28;20191;-81
2022/11/29 00:13:10;;;;;;;65.10;30.33;;;2.70;1.00;;;;;;10519322;28;20186;-80
2022/11/29 00:18:31;;;;;;;63.97;29.87;;;2.70;1.00;;;;;;10518629;28;20262;-80
2022/11/29 00:23:53;;;;;;;72.07;32.43;;;2.80;1.00;;;;;;10485413;28;20218;-82
2022/11/29 00:29:14;;;;;;;65.63;30.10;;;2.70;1.00;;;;;;10519339;28;20247;-81
2022/11/29 00:34:36;;;;;;;65.87;30.63;;;2.60;1.00;;;;;;10490549;28;20217;-81
2022/11/29 00:39:57;;;;;;;64.43;31.30;;;2.60;1.00;;;;;;10519130;28;20191;-81
2022/11/29 00:45:18;;;;;;;66.67;31.20;;;2.60;1.00;;;;;;10522210;28;20245;-80
2022/11/29 00:50:39;;;;;;;73.67;32.47;;;2.60;1.00;;;;;;10478867;28;20195;-81
2022/11/29 00:56:02;;;;;;;71.23;33.50;;;2.60;1.00;;;;;;10476968;28;20545;-80
2022/11/29 01:01:23;;;;;;;73.03;33.00;;;2.60;1.00;;;;;;10500840;28;20183;-81
2022/11/29 01:06:45;;;;;;;71.63;30.70;;;2.60;1.00;;;;;;10507761;28;20232;-80
2022/11/29 01:12:06;;;;;;;65.77;31.13;;;2.60;1.00;;;;;;10477797;28;20196;-82
2022/11/29 01:17:27;;;;;;;71.43;30.90;;;2.50;1.00;;;;;;10487873;28;20233;-80
2022/11/29 01:22:48;;;;;;;65.67;29.63;;;2.50;1.00;;;;;;10511682;28;20218;-80
2022/11/29 01:28:10;;;;;;;60.33;29.23;;;2.40;1.00;;;;;;10488781;28;20274;-80
2022/11/29 01:33:31;;;;;;;61.07;30.27;;;2.50;1.00;;;;;;10525683;28;20196;-80
2022/11/29 01:38:52;;;;;;;61.53;29.73;;;2.40;1.00;;;;;;10525023;28;20240;-81
2022/11/29 01:44:13;;;;;;;55.80;29.03;;;2.40;1.00;;;;;;10535503;28;20275;-81
2022/11/29 01:49:44;;;;;;;62.50;30.07;;;2.40;1.00;;;;;;10505494;28;20282;-81
2022/11/29 01:55:06;;;;;;;58.03;27.77;;;2.40;1.00;;;;;;10455229;28;20502;-82
2022/11/29 02:00:28;;;;;;;54.50;28.27;;;2.40;1.00;;;;;;10469153;28;20286;-82
2022/11/29 02:05:51;;;;;;;56.20;28.20;;;2.40;1.00;;;;;;10454825;28;20228;-81
2022/11/29 02:11:25;;;;;;;51.37;26.93;;;2.30;1.00;;;;;;10454489;28;20199;-82
2022/11/29 02:17:05;;;;;;;57.53;26.23;;;2.40;1.00;;;;;;10481286;28;20227;-81
2022/11/29 02:22:30;;;;;;;50.67;24.80;;;2.30;1.00;;;;;;10502604;28;20198;-80
2022/11/29 02:28:21;;;;;;;53.13;25.70;;;2.30;1.00;;;;;;10509677;28;20191;-81
2022/11/29 02:33:51;;;;;;;48.40;24.03;;;2.40;1.00;;;;;;10509361;28;20206;-80
2022/11/29 02:39:22;;;;;;;51.03;24.17;;;2.40;1.00;;;;;;10522986;28;20198;-80
2022/11/29 02:45:24;;;;;;;55.37;26.17;;;2.40;1.00;;;;;;10551651;28;20528;-81
2022/11/29 02:50:49;;;;;;;48.03;24.77;;;2.40;1.00;;;;;;10506745;28;20222;-81
2022/11/29 02:56:28;;;;;;;52.27;25.20;;;2.40;1.00;;;;;;10522403;28;20195;-80
2022/11/29 03:02:08;;;;;;;46.67;23.80;;;2.40;1.00;;;;;;10506758;28;20209;-81
2022/11/29 03:07:48;;;;;;;51.07;24.70;;;2.30;1.00;;;;;;10521850;28;20216;-81
2022/11/29 03:13:47;;;;;;;44.37;23.20;;;2.30;1.00;;;;;;10507593;28;20192;-81
2022/11/29 03:19:36;;;;;;;45.17;23.47;;;2.30;1.00;;;;;;10495280;28;20228;-81
2022/11/29 03:25:08;;;;;;;43.67;22.80;;;2.20;1.00;;;;;;10479393;28;20298;-79
2022/11/29 03:30:33;;;;;;;45.40;24.20;;;2.20;1.00;;;;;;10465265;28;20200;-79
2022/11/29 03:36:06;;;;;;;48.97;26.20;;;2.10;1.00;;;;;;10519364;28;20195;-81
2022/11/29 03:41:50;;;;;;;50.13;25.63;;;2.10;1.00;;;;;;10522032;28;20187;-82
2022/11/29 03:47:22;;;;;;;54.30;26.23;;;2.20;1.00;;;;;;10552220;28;20567;-82
2022/11/29 03:52:49;;;;;;;54.13;25.63;;;2.10;1.00;;;;;;10473339;28;20493;-81
2022/11/29 03:58:50;;;;;;;49.57;24.67;;;2.10;1.00;;;;;;10450616;28;20201;-82
2022/11/29 04:04:29;;;;;;;49.03;26.17;;;2.10;1.00;;;;;;10463761;28;20234;-81
2022/11/29 04:10:23;;;;;;;51.50;26.33;;;2.00;1.00;;;;;;10478364;28;20195;-81
2022/11/29 04:16:22;;;;;;;55.43;27.30;;;2.10;1.00;;;;;;10478802;28;20498;-81
2022/11/29 04:22:25;;;;;;;48.90;25.83;;;2.00;1.00;;;;;;10499545;28;20390;-81
2022/11/29 04:27:52;;;;;;;50.00;28.50;;;2.00;1.00;;;;;;10477490;28;20230;-81
2022/11/29 04:33:28;;;;;;;52.90;27.77;;;2.00;1.00;;;;;;10463363;28;20198;-81
2022/11/29 04:39:22;;;;;;;46.00;25.73;;;2.00;1.00;;;;;;10477318;28;20211;-80
2022/11/29 04:45:08;;;;;;;47.13;26.80;;;2.00;1.00;;;;;;10533704;28;20516;-81
2022/11/29 04:50:59;;;;;;;50.03;26.30;;;2.00;1.00;;;;;;10479839;28;20202;-80
2022/11/29 04:56:32;;;;;;;49.87;27.50;;;2.00;1.00;;;;;;10477056;28;20198;-81
2022/11/29 05:02:18;;;;;;;49.70;26.47;;;1.80;1.00;;;;;;10462252;28;20498;-79
2022/11/29 05:07:57;;;;;;;49.23;26.20;;;1.90;1.00;;;;;;10462778;28;20219;-80
2022/11/29 05:13:18;;;;;;;44.90;25.20;;;1.90;1.00;;;;;;10476597;28;20376;-79
2022/11/29 05:18:42;;;;;;;46.17;27.47;;;1.90;1.00;;;;;;10464056;28;20253;-80
2022/11/29 05:24:25;;;;;;;44.60;25.73;;;1.90;1.00;;;;;;10448265;28;20226;-82
2022/11/29 05:30:09;;;;;;;51.10;27.97;;;2.00;1.00;;;;;;10476528;28;20191;-83
2022/11/29 05:35:50;;;;;;;52.50;29.23;;;1.90;1.00;;;;;;10498775;28;20204;-83
2022/11/29 05:41:13;;;;;;;51.83;28.37;;;1.90;1.00;;;;;;10518465;28;20480;-79
2022/11/29 05:46:58;;;;;;;54.80;29.50;;;1.90;1.00;;;;;;10482797;28;20302;-81
2022/11/29 05:52:23;;;;;;;47.70;28.17;;;1.80;1.00;;;;;;10469479;28;20203;-80
2022/11/29 05:58:02;;;;;;;53.97;27.37;;;1.90;1.00;;;;;;10482854;28;20206;-81
2022/11/29 06:03:28;;;;;;;56.47;32.50;;;1.90;1.00;;;;;;10483440;28;20220;-80
2022/11/29 06:09:32;;;;;;;53.37;29.60;;;1.70;1.00;;;;;;10468425;28;20261;-82
2022/11/29 06:15:14;;;;;;;49.77;29.07;;;1.80;1.00;;;;;;10421432;28;20205;-82
2022/11/29 06:21:03;;;;;;;62.23;32.87;;;1.70;1.00;;;;;;10414751;28;20576;-81
2022/11/29 06:27:10;;;;;;;53.90;29.53;;;1.70;1.00;;;;;;10393918;28;20478;-80
2022/11/29 06:32:43;;;;;;;51.17;31.47;;;1.70;1.00;;;;;;10152686;29;20208;-80
2022/11/29 06:38:29;;;;;;;63.43;33.77;;;1.70;1.00;;;;;;10183006;29;20495;-80
2022/11/29 06:43:50;;;;;;;55.90;31.67;;;1.70;1.00;;;;;;10213281;29;20235;-81
2022/11/29 06:49:27;;;;;;;63.50;31.40;;;1.60;1.00;;;;;;10226937;29;20210;-81
2022/11/29 06:55:12;;;;;;;60.77;31.67;;;1.80;1.00;;;;;;10206105;29;20429;-81
2022/11/29 07:01:12;;;;;;;56.50;31.10;;;1.70;1.00;;;;;;10225770;29;20283;-82
2022/11/29 07:06:34;;;;;;;57.90;32.40;;;1.70;1.00;;;;;;10288008;28;20232;-82
2022/11/29 07:11:55;;;;;;;61.53;31.37;;;1.70;1.00;;;;;;10466041;28;20236;-81
2022/11/29 07:17:58;;;;;;;61.87;30.73;;;1.70;1.00;;;;;;10469998;28;20226;-82
2022/11/29 07:23:27;;;;;;;53.37;30.27;;;1.70;1.00;;;;;;10463406;28;20241;-81
2022/11/29 07:29:29;;;;;;;61.07;30.93;;;1.70;1.00;;;;;;10476952;28;20269;-81
2022/11/29 07:35:03;;;;;;;61.13;31.87;;;1.80;1.00;;;;;;10445599;28;20422;-81
2022/11/29 07:40:48;;;;;;;56.53;30.97;;;1.80;1.00;;;;;;10476013;28;20281;-82
2022/11/29 07:46:09;;;;;;;56.07;30.43;;;1.80;1.00;;;;;;10421976;28;20234;-81
2022/11/29 07:51:31;;;;;;;61.63;31.77;;;1.70;1.00;;;;;;10443143;28;20206;-81
2022/11/29 07:56:52;;;;;;;55.47;29.33;;;1.70;1.00;;;;;;10477991;28;20509;-81
2022/11/29 08:02:13;;;;;;;54.57;30.43;;;1.70;1.00;;;;;;10480792;28;20218;-81
2022/11/29 08:07:37;;;;;;;62.20;33.27;;;1.70;1.00;;;;;;10477481;28;20263;-81
2022/11/29 08:12:58;;;;;;;56.23;33.13;;;1.70;1.00;;;;;;10480243;28;20502;-81
2022/11/29 08:18:19;;;;;;;71.13;35.00;;;1.80;1.00;;;;;;10458797;28;20436;-81
2022/11/29 08:23:40;;;;;;;67.33;31.80;;;1.80;1.00;;;;;;10449642;28;20581;-81
2022/11/29 08:29:03;;;;;;;61.57;32.60;;;1.80;1.00;;;;;;10473937;28;20226;-82
2022/11/29 08:34:24;;;;;;;64.90;31.93;;;1.80;1.00;;;;;;10477512;28;20206;-80
2022/11/29 08:39:45;;;;;;;66.60;33.20;;;1.80;1.00;;;;;;10499620;28;20198;-80
2022/11/29 08:45:08;;;;;;;58.40;31.13;;;1.70;1.00;;;;;;10535790;28;20236;-80
2022/11/29 08:50:29;;;;;;;63.30;33.10;;;1.70;1.00;;;;;;10509428;28;20206;-85
2022/11/29 08:55:51;;;;;;;69.60;34.47;;;1.90;1.00;;;;;;10501359;28;20191;-87
2022/11/29 09:01:17;;;;;;;68.03;33.83;;;1.70;1.00;;;;;;10499457;28;20243;-79
2022/11/29 09:06:41;;;;;;;74.40;34.27;;;1.80;1.00;;;;;;10499625;28;20550;-79
2022/11/29 09:12:07;;;;;;;66.80;33.17;;;1.80;1.00;;;;;;10514170;28;20196;-83
2022/11/29 09:17:28;;;;;;;65.13;33.07;;;1.80;1.00;;;;;;10489466;28;20317;-78
2022/11/29 09:22:50;;;;;;;70.17;33.47;;;1.80;1.00;;;;;;10447072;28;20412;-79
2022/11/29 09:28:11;;;;;;;63.20;32.03;;;1.70;1.00;;;;;;10499568;28;20452;-78
2022/11/29 09:33:33;;;;;;;67.87;33.33;;;1.70;1.00;;;;;;10477209;28;20246;-79
2022/11/29 09:38:55;;;;;;;65.10;32.57;;;1.70;1.00;;;;;;10464051;28;20220;-78
2022/11/29 09:44:39;;;;;;;62.73;31.47;;;1.60;1.00;;;;;;10513494;28;20532;-78
2022/11/29 09:50:28;;;;;;;60.27;32.53;;;1.60;1.00;;;;;;10512423;28;20202;-80
2022/11/29 09:56:11;;;;;;;58.73;30.90;;;1.70;1.00;;;;;;10519678;28;20218;-78
2022/11/29 10:01:38;;;;;;;68.50;34.60;;;1.70;1.00;;;;;;10491103;28;20226;-80
2022/11/29 10:07:26;;;;;;;61.90;31.93;;;1.70;1.00;;;;;;10504657;28;20308;-79
2022/11/29 10:12:59;;;;;;;63.13;33.23;;;1.70;1.00;;;;;;10517998;28;20213;-78
2022/11/29 10:18:46;;;;;;;64.77;33.70;;;1.70;1.00;;;;;;10499070;28;20230;-78
2022/11/29 10:24:19;;;;;;;66.50;34.13;;;1.70;1.00;;;;;;10463021;28;20256;-78
2022/11/29 10:29:40;;;;;;;61.10;31.03;;;1.70;1.00;;;;;;10482074;28;20188;-78
2022/11/29 10:35:01;;;;;;;61.53;33.63;;;1.80;1.00;;;;;;10493851;28;20245;-78
2022/11/29 10:40:32;;;;;;;63.60;33.70;;;1.80;1.00;;;;;;10518838;28;20195;-81
2022/11/29 10:45:54;;;;;;;64.40;34.07;;;1.80;1.00;;;;;;10542607;28;20551;-80
2022/11/29 10:51:16;;;;;;;61.53;34.17;;;1.90;1.00;;;;;;10516854;28;20244;-78
2022/11/29 10:56:39;;;;;;;71.37;36.27;;;1.90;1.00;;;;;;10517673;28;20497;-78
2022/11/29 11:02:02;;;;;;;69.93;35.33;;;1.90;1.00;;;;;;10502572;28;20195;-79
2022/11/29 11:07:34;;;;;;;76.73;37.43;;;2.00;1.00;;;;;;10485548;28;20218;-80
2022/11/29 11:13:19;;;;;;;61.17;32.07;;;1.90;1.00;;;;;;10515994;28;20202;-81
2022/11/29 11:18:40;;;;;;;57.87;31.07;;;1.80;1.00;;;;;;10492414;28;20231;-80
2022/11/29 11:24:02;;;;;;;55.60;30.50;;;1.80;1.00;;;;;;10489137;28;20234;-81
2022/11/29 11:29:43;;;;;;;56.33;30.87;;;1.80;1.00;;;;;;10461224;28;20281;-81
2022/11/29 11:35:21;;;;;;;59.33;34.23;;;1.90;1.00;;;;;;10500807;28;20585;-81
2022/11/29 11:40:42;;;;;;;69.10;35.07;;;1.90;1.00;;;;;;10510864;28;20206;-78
2022/11/29 11:46:04;;;;;;;67.67;34.47;;;1.80;1.00;;;;;;10536336;28;20245;-79
2022/11/29 11:51:28;;;;;;;73.60;34.23;;;1.90;1.00;;;;;;10514785;28;20279;-79
2022/11/29 11:56:49;;;;;;;59.17;32.53;;;1.90;1.00;;;;;;10487038;28;20208;-82
2022/11/29 12:02:36;;;;;;;65.17;33.67;;;1.80;1.00;;;;;;10501146;28;20208;-79
2022/11/29 12:08:01;;;;;;;59.13;32.67;;;1.80;1.00;;;;;;10514242;28;20249;-79
2022/11/29 12:13:31;;;;;;;60.97;33.57;;;1.80;1.00;;;;;;10486286;28;20247;-79
2022/11/29 12:19:13;;;;;;;59.67;35.53;;;1.80;1.00;;;;;;10524471;28;20228;-80
2022/11/29 12:24:42;;;;;;;66.60;36.30;;;1.80;1.00;;;;;;10520861;28;20229;-78
2022/11/29 12:30:12;;;;;;;68.57;36.77;;;1.70;1.00;;;;;;10448552;28;20399;-80
2022/11/29 12:35:48;;;;;;;65.23;36.63;;;1.70;1.00;;;;;;10460030;28;20215;-79
2022/11/29 12:41:18;;;;;;;70.73;37.73;;;1.90;1.00;;;;;;10472573;28;20370;-80
2022/11/29 12:46:39;;;;;;;64.13;37.00;;;1.80;1.00;;;;;;10461430;28;20420;-80
2022/11/29 12:52:37;;;;;;;81.13;43.90;;;1.90;1.00;;;;;;10468495;28;20211;-79
2022/11/29 12:58:26;;;;;;;74.87;42.00;;;1.90;1.00;;;;;;10455673;28;20191;-83
2022/11/29 13:04:16;;;;;;;77.20;42.90;;;1.90;1.00;;;;;;10459646;28;20650;-80
2022/11/29 13:10:25;;;;;;;77.93;43.77;;;1.90;1.00;;;;;;10456942;28;20214;-80
2022/11/29 13:15:59;;;;;;;77.43;41.57;;;1.70;1.00;;;;;;10475258;28;20291;-80
2022/11/29 13:21:35;;;;;;;83.60;43.23;;;1.70;1.00;;;;;;10500719;28;20238;-80
2022/11/29 13:26:57;;;;;;;89.53;45.20;;;1.60;1.00;;;;;;10455452;28;20245;-86
2022/11/29 13:33:04;;;;;;;84.57;47.43;;;1.70;1.00;;;;;;10490585;28;20219;-83
2022/11/29 13:39:13;;;;;;;87.33;45.17;;;1.70;1.00;;;;;;10467325;28;20218;-79
2022/11/29 13:44:45;;;;;;;84.27;45.53;;;1.70;1.00;;;;;;10495511;28;20240;-81
2022/11/29 13:50:37;;;;;;;87.60;44.97;;;1.80;1.00;;;;;;10477607;28;20199;-80
2022/11/29 13:56:00;;;;;;;94.23;50.57;;;1.80;1.00;;;;;;10466361;28;20191;-81
2022/11/29 14:01:25;;;;;;;79.43;44.30;;;1.70;1.00;;;;;;10450519;28;20207;-80
2022/11/29 14:06:47;;;;;;;80.20;44.10;;;1.70;1.00;;;;;;10464125;28;20235;-81
2022/11/29 14:12:35;;;;;;;97.77;52.17;;;1.60;1.00;;;;;;10448575;28;20210;-80
2022/11/29 14:18:02;;;;;;;88.63;47.60;;;1.70;1.00;;;;;;10477695;28;20246;-84
2022/11/29 14:23:31;;;;;;;89.37;46.63;;;1.60;1.00;;;;;;10463448;28;20221;-80
2022/11/29 14:28:52;;;;;;;80.43;43.17;;;1.60;1.00;;;;;;10515457;28;20512;-78
2022/11/29 14:34:19;;;;;;;77.53;41.87;;;1.50;1.00;;;;;;10473046;28;20232;-87
2022/11/29 14:39:45;;;;;;;78.63;41.77;;;1.50;1.00;;;;;;10486016;28;20198;-82
2022/11/29 14:45:30;;;;;;;72.57;41.63;;;1.40;1.00;;;;;;10536363;28;20228;-83
2022/11/29 14:51:10;;;;;;;78.00;42.00;;;1.40;1.00;;;;;;10480548;28;20488;-81
2022/11/29 14:56:33;;;;;;;68.47;38.87;;;1.40;1.00;;;;;;10515923;28;20669;-79
2022/11/29 15:01:55;;;;;;;68.30;38.47;;;1.30;1.00;;;;;;10517800;28;20199;-80
2022/11/29 15:07:29;;;;;;;74.63;41.23;;;1.30;1.00;;;;;;10517674;28;20588;-79
2022/11/29 15:12:51;;;;;;;68.97;39.17;;;1.20;1.00;;;;;;10516247;28;20456;-81
2022/11/29 15:18:46;;;;;;;65.43;37.87;;;1.30;1.00;;;;;;10488114;28;20243;-79
2022/11/29 15:24:13;;;;;;;73.03;40.83;;;1.20;1.00;;;;;;10491584;28;20225;-78
2022/11/29 15:29:34;;;;;;;64.43;36.10;;;1.30;1.00;;;;;;10507904;28;20240;-82
2022/11/29 15:34:56;;;;;;;64.33;37.50;;;1.30;1.00;;;;;;10466802;28;20233;-80
2022/11/29 15:40:26;;;;;;;70.77;39.17;;;1.20;1.00;;;;;;10460007;28;20218;-80
2022/11/29 15:45:54;;;;;;;73.73;40.67;;;1.20;1.00;;;;;;10535188;28;20227;-81
2022/11/29 15:51:32;;;;;;;70.67;39.27;;;1.30;1.00;;;;;;10506761;28;20255;-79
2022/11/29 15:56:58;;;;;;;68.43;36.80;;;1.30;1.00;;;;;;10473156;28;20218;-79
2022/11/29 16:02:26;;;;;;;59.27;34.33;;;1.30;1.00;;;;;;10459427;28;20200;-83
2022/11/29 16:08:16;;;;;;;66.13;35.27;;;1.30;1.00;;;;;;10463881;28;20273;-78
2022/11/29 16:13:40;;;;;;;65.20;36.47;;;1.20;1.00;;;;;;10464091;28;20229;-80
2022/11/29 16:19:27;;;;;;;71.30;38.73;;;1.10;1.00;;;;;;10463831;28;20249;-82
2022/11/29 16:24:55;;;;;;;55.20;33.97;;;1.20;1.00;;;;;;10514239;28;20430;-82
2022/11/29 16:30:25;;;;;;;60.43;34.67;;;1.30;1.00;;;;;;10496653;28;20278;-82
2022/11/29 16:35:47;;;;;;;58.97;33.63;;;1.20;1.00;;;;;;10462827;28;20202;-82
2022/11/29 16:41:22;;;;;;;65.03;35.97;;;1.10;1.00;;;;;;10477911;28;20442;-81
2022/11/29 16:46:43;;;;;;;62.10;36.73;;;1.20;1.00;;;;;;10470404;28;20222;-82
2022/11/29 16:52:23;;;;;;;57.03;33.80;;;1.20;1.00;;;;;;10519215;28;20518;-82
2022/11/29 16:57:46;;;;;;;61.50;36.50;;;1.10;1.00;;;;;;10461694;28;20195;-81
2022/11/29 17:03:08;;;;;;;71.97;40.83;;;1.10;1.00;;;;;;10478233;28;20243;-81
2022/11/29 17:08:29;;;;;;;59.87;33.77;;;1.20;1.00;;;;;;10476621;28;20226;-79
2022/11/29 17:13:51;;;;;;;52.73;33.03;;;1.20;1.00;;;;;;10462626;28;20226;-79
2022/11/29 17:19:12;;;;;;;68.33;36.93;;;1.20;1.00;;;;;;10488894;28;20232;-80
2022/11/29 17:24:33;;;;;;;61.40;35.00;;;1.20;1.00;;;;;;10473176;28;20228;-79
2022/11/29 17:29:54;;;;;;;55.87;33.00;;;1.20;1.00;;;;;;10481960;28;20201;-80
2022/11/29 17:35:15;;;;;;;61.80;33.97;;;1.10;1.00;;;;;;10502722;28;20198;-83
2022/11/29 17:40:38;;;;;;;61.10;33.73;;;1.10;1.00;;;;;;10462492;28;20497;-80
2022/11/29 17:46:05;;;;;;;63.87;35.53;;;1.00;1.00;;;;;;10539758;28;20244;-80
2022/11/29 17:51:27;;;;;;;60.43;34.17;;;1.00;1.00;;;;;;10534764;28;20190;-83
2022/11/29 17:57:08;;;;;;;58.67;31.67;;;1.10;1.00;;;;;;10499762;28;20228;-80
2022/11/29 18:02:29;;;;;;;57.23;33.40;;;1.00;1.00;;;;;;10525792;28;20246;-79
2022/11/29 18:07:56;;;;;;;59.63;33.63;;;1.00;1.00;;;;;;10524513;28;20301;-80
2022/11/29 18:13:17;;;;;;;56.13;31.33;;;1.00;1.00;;;;;;10510441;28;20231;-84
2022/11/29 18:18:39;;;;;;;55.90;31.80;;;1.00;1.00;;;;;;10500259;28;20563;-83
2022/11/29 18:24:02;;;;;;;60.17;33.47;;;0.90;1.00;;;;;;10512949;28;20283;-82
2022/11/29 18:29:24;;;;;;;58.77;33.87;;;1.00;1.00;;;;;;10502335;28;20202;-78
2022/11/29 18:34:45;;;;;;;58.73;33.63;;;0.90;1.00;;;;;;10484141;28;20205;-81
2022/11/29 18:40:07;;;;;;;71.57;39.00;;;1.00;1.00;;;;;;10518430;28;20588;-81
2022/11/29 18:45:34;;;;;;;68.87;36.50;;;1.00;1.00;;;;;;10543925;28;20221;-83
2022/11/29 18:51:03;;;;;;;64.47;36.47;;;1.00;1.00;;;;;;10536196;28;20204;-84
2022/11/29 18:56:27;;;;;;;63.27;34.43;;;1.00;1.00;;;;;;10536325;28;20199;-80
2022/11/29 19:01:48;;;;;;;70.43;37.17;;;1.00;1.00;;;;;;10549314;28;20379;-80
2022/11/29 19:07:10;;;;;;;70.43;36.23;;;1.00;1.00;;;;;;10550617;28;20233;-82
2022/11/29 19:12:31;;;;;;;76.03;39.50;;;1.10;1.00;;;;;;10507693;28;20247;-83
2022/11/29 19:17:52;;;;;;;76.53;40.10;;;1.10;1.00;;;;;;10507239;28;20244;-81
2022/11/29 19:23:14;;;;;;;69.80;38.10;;;1.20;1.00;;;;;;10483777;28;20664;-80
2022/11/29 19:28:36;;;;;;;83.27;43.50;;;1.30;1.00;;;;;;10481475;28;20265;-80
2022/11/29 19:33:57;;;;;;;84.73;44.97;;;1.20;1.00;;;;;;10477466;28;20206;-79
2022/11/29 19:39:18;;;;;;;77.83;41.10;;;1.20;1.00;;;;;;10473726;28;20210;-79
2022/11/29 19:44:40;;;;;;;76.50;39.80;;;1.20;1.00;;;;;;10525125;28;20192;-80
2022/11/29 19:50:14;;;;;;;66.43;36.17;;;1.40;1.00;;;;;;10505946;28;20207;-81
2022/11/29 19:55:38;;;;;;;64.23;35.27;;;1.40;1.00;;;;;;10505222;28;20196;-81
2022/11/29 20:01:04;;;;;;;66.30;36.13;;;1.40;1.00;;;;;;10519786;28;20205;-80
2022/11/29 20:06:27;;;;;;;78.20;39.63;;;1.40;1.00;;;;;;10519979;28;20219;-81
2022/11/29 20:11:48;;;;;;;57.47;32.43;;;1.40;1.00;;;;;;10480694;28;20259;-81
2022/11/29 20:17:09;;;;;;;59.53;32.90;;;1.30;1.00;;;;;;10477634;28;20252;-83
2022/11/29 20:22:30;;;;;;;59.83;34.57;;;1.40;1.00;;;;;;10495763;28;20505;-81
2022/11/29 20:27:52;;;;;;;60.47;35.13;;;1.30;1.00;;;;;;10505534;28;20218;-79
2022/11/29 20:33:21;;;;;;;64.80;34.00;;;1.20;1.00;;;;;;10497220;28;20207;-80
2022/11/29 20:38:58;;;;;;;64.40;35.10;;;1.20;1.00;;;;;;10490950;28;20197;-80
2022/11/29 20:44:23;;;;;;;61.77;34.47;;;1.20;1.00;;;;;;10530036;28;20264;-80
2022/11/29 20:49:44;;;;;;;75.47;39.00;;;1.30;1.00;;;;;;10562048;28;20229;-81
2022/11/29 20:55:06;;;;;;;62.80;33.60;;;1.40;1.00;;;;;;10546563;28;20260;-82
2022/11/29 21:00:27;;;;;;;57.47;31.97;;;1.40;1.00;;;;;;10522527;28;20193;-79
2022/11/29 21:05:50;;;;;;;62.00;32.80;;;1.30;1.00;;;;;;10476738;28;20223;-80
2022/11/29 21:11:11;;;;;;;54.77;31.70;;;1.30;1.00;;;;;;10448820;28;20198;-81
2022/11/29 21:16:33;;;;;;;57.27;30.63;;;1.40;1.00;;;;;;10448336;28;20402;-81
2022/11/29 21:22:22;;;;;;;56.80;30.60;;;1.40;1.00;;;;;;10474666;28;20209;-80
2022/11/29 21:27:44;;;;;;;51.63;29.00;;;1.30;1.00;;;;;;10554240;28;20214;-81
2022/11/29 21:33:05;;;;;;;57.60;32.20;;;1.30;1.00;;;;;;10504950;28;20206;-80
2022/11/29 21:38:28;;;;;;;58.50;31.70;;;1.30;1.00;;;;;;10456375;28;20209;-80
2022/11/29 21:43:49;;;;;;;62.97;32.33;;;1.30;1.00;;;;;;10497590;28;20240;-82
2022/11/29 21:49:25;;;;;;;55.00;29.73;;;1.30;1.00;;;;;;10486744;28;20249;-81
2022/11/29 21:54:46;;;;;;;48.70;28.03;;;1.30;1.00;;;;;;10470051;28;20221;-80
2022/11/29 22:00:08;;;;;;;55.07;30.70;;;1.30;1.00;;;;;;10469832;28;20187;-81
2022/11/29 22:05:29;;;;;;;51.90;27.33;;;1.30;1.00;;;;;;10469346;28;20212;-82
2022/11/29 22:11:03;;;;;;;51.50;28.47;;;1.40;1.00;;;;;;10469440;28;20389;-82
2022/11/29 22:16:24;;;;;;;57.03;30.43;;;1.40;1.00;;;;;;10480078;28;20579;-81
2022/11/29 22:21:47;;;;;;;49.77;29.27;;;1.30;1.00;;;;;;10524719;28;20199;-82
2022/11/29 22:27:08;;;;;;;50.50;27.80;;;1.30;1.00;;;;;;10525067;28;20225;-80
2022/11/29 22:32:29;;;;;;;52.17;29.37;;;1.30;1.00;;;;;;10480908;28;20210;-80
2022/11/29 22:37:51;;;;;;;54.57;30.87;;;1.30;1.00;;;;;;10467110;28;20250;-82
2022/11/29 22:43:12;;;;;;;51.03;28.97;;;1.30;1.00;;;;;;10513184;28;20194;-82
2022/11/29 22:48:34;;;;;;;47.53;28.03;;;1.30;1.00;;;;;;10531729;28;20222;-82
2022/11/29 22:54:00;;;;;;;52.83;28.00;;;1.40;1.00;;;;;;10509434;28;20267;-83
2022/11/29 22:59:21;;;;;;;53.23;30.13;;;1.40;1.00;;;;;;10522689;28;20200;-83
2022/11/29 23:04:42;;;;;;;52.07;30.37;;;1.40;1.00;;;;;;10522758;28;20194;-82
2022/11/29 23:10:03;;;;;;;54.03;30.87;;;1.40;1.00;;;;;;10507946;28;20278;-82
2022/11/29 23:15:24;;;;;;;57.03;33.23;;;1.50;1.00;;;;;;10502429;28;20396;-82
2022/11/29 23:20:45;;;;;;;62.23;33.93;;;1.50;1.00;;;;;;10486876;28;20190;-82
2022/11/29 23:26:08;;;;;;;54.83;29.93;;;1.40;1.00;;;;;;10514948;28;20466;-83
2022/11/29 23:31:30;;;;;;;56.83;31.93;;;1.50;1.00;;;;;;10478218;28;20212;-83
2022/11/29 23:36:51;;;;;;;53.43;31.70;;;1.40;1.00;;;;;;10465828;28;20205;-82
2022/11/29 23:42:13;;;;;;;51.77;30.90;;;1.40;1.00;;;;;;10479932;28;20191;-83
2022/11/29 23:47:34;;;;;;;52.10;30.00;;;1.40;1.00;;;;;;10521075;28;20238;-83
2022/11/29 23:52:55;;;;;;;51.00;29.73;;;1.50;1.00;;;;;;10506417;28;20240;-82
2022/11/29 23:58:16;;;;;;;51.40;29.07;;;1.50;1.00;;;;;;10520380;28;20198;-83
